Time;durP1;ratioP1;P1;durP2;ratioP2;P2;SDS_P1;SDS_P2;PMS_P1;PMS_P2;Temp;Humidity;BMP_temperature;BMP_pressure;BME280_temperature;BME280_humidity;BME280_pressure;Samples;Min_cycle;Max_cycle;Signal;HPM_P1;HPM_P2
2022/12/12 00:02:11;;;;;;;31.30;16.13;;;-2.50;99.90;;;;;;8378203;28;20265;-79
2022/12/12 00:06:12;;;;;;;34.57;17.23;;;-2.50;99.90;;;;;;8375016;28;20276;-82
2022/12/12 00:10:14;;;;;;;33.00;15.47;;;-2.50;99.90;;;;;;8374816;28;20215;-75
2022/12/12 00:14:15;;;;;;;26.37;14.80;;;-2.50;99.90;;;;;;8373168;28;20231;-80
2022/12/12 00:18:15;;;;;;;33.57;16.30;;;-2.50;99.90;;;;;;8371306;28;20182;-81
2022/12/12 00:22:16;;;;;;;30.50;16.50;;;-2.50;99.90;;;;;;8383549;28;20186;-76
2022/12/12 00:26:24;;;;;;;29.87;15.73;;;-2.50;99.90;;;;;;8371331;28;20185;-79
2022/12/12 00:30:25;;;;;;;29.43;15.10;;;-2.50;99.90;;;;;;8370533;28;20258;-79
2022/12/12 00:34:26;;;;;;;30.23;16.00;;;-2.50;99.90;;;;;;8374356;28;20209;-79
2022/12/12 00:38:26;;;;;;;34.80;17.10;;;-2.50;99.90;;;;;;8368107;28;20264;-79
2022/12/12 00:42:27;;;;;;;29.30;15.13;;;-2.50;99.90;;;;;;8372212;28;20185;-74
2022/12/12 00:46:28;;;;;;;35.33;14.73;;;-2.50;99.90;;;;;;8374938;28;20213;-74
2022/12/12 00:50:29;;;;;;;32.87;15.60;;;-2.50;99.90;;;;;;8373039;28;20194;-79
2022/12/12 00:54:30;;;;;;;28.83;15.20;;;-2.50;99.90;;;;;;8371933;28;20208;-75
2022/12/12 00:58:32;;;;;;;32.93;14.93;;;-2.50;99.90;;;;;;8367062;28;20209;-80
2022/12/12 01:02:33;;;;;;;31.07;15.13;;;-2.40;99.90;;;;;;8368723;28;20176;-79
2022/12/12 01:06:35;;;;;;;31.70;14.87;;;-2.40;99.90;;;;;;8366923;28;20185;-79
2022/12/12 01:10:36;;;;;;;33.10;16.43;;;-2.40;99.90;;;;;;8370101;28;20189;-79
2022/12/12 01:14:37;;;;;;;29.90;15.80;;;-2.40;99.90;;;;;;8370978;28;20283;-76
2022/12/12 01:18:39;;;;;;;31.37;15.97;;;-2.40;99.90;;;;;;8381864;28;20265;-75
2022/12/12 01:22:40;;;;;;;31.57;15.20;;;-2.40;99.90;;;;;;8374183;28;20201;-78
2022/12/12 01:26:41;;;;;;;34.57;16.47;;;-2.40;99.90;;;;;;8369335;28;20181;-82
2022/12/12 01:30:42;;;;;;;33.90;16.30;;;-2.40;99.90;;;;;;8364044;28;20281;-77
2022/12/12 01:34:42;;;;;;;32.57;16.17;;;-2.40;99.90;;;;;;8368279;28;20216;-76
2022/12/12 01:38:49;;;;;;;34.30;17.13;;;-2.40;99.90;;;;;;8366372;28;20186;-80
2022/12/12 01:42:51;;;;;;;33.20;15.40;;;-2.40;99.90;;;;;;8369322;28;20189;-79
2022/12/12 01:46:52;;;;;;;35.63;16.17;;;-2.40;99.90;;;;;;8370154;28;20243;-75
2022/12/12 01:50:55;;;;;;;31.03;15.40;;;-2.40;99.90;;;;;;8386115;28;20189;-77
2022/12/12 01:54:58;;;;;;;31.43;15.97;;;-2.40;99.90;;;;;;8371473;28;20212;-78
2022/12/12 01:59:02;;;;;;;30.63;15.03;;;-2.40;99.90;;;;;;8371624;28;20255;-75
2022/12/12 02:03:03;;;;;;;33.47;16.57;;;-2.40;99.90;;;;;;8367631;28;20192;-74
2022/12/12 02:07:04;;;;;;;34.47;15.37;;;-2.40;99.90;;;;;;8367410;28;20181;-75
2022/12/12 02:11:05;;;;;;;32.23;15.53;;;-2.40;99.90;;;;;;8369275;28;20192;-75
2022/12/12 02:15:06;;;;;;;32.53;15.33;;;-2.40;99.90;;;;;;8373290;28;20201;-81
2022/12/12 02:19:13;;;;;;;35.93;16.77;;;-2.40;99.90;;;;;;8380125;28;20181;-75
2022/12/12 02:23:35;;;;;;;35.00;16.67;;;-2.40;99.90;;;;;;8383286;28;20196;-80
2022/12/12 02:27:54;;;;;;;28.40;15.67;;;-2.40;99.90;;;;;;8381165;28;20181;-75
2022/12/12 02:32:09;;;;;;;31.17;15.40;;;-2.40;99.90;;;;;;8382851;28;20188;-76
2022/12/12 02:36:24;;;;;;;35.70;15.90;;;-2.40;99.90;;;;;;8379037;28;20210;-76
2022/12/12 02:40:36;;;;;;;32.73;15.17;;;-2.40;99.90;;;;;;8384160;28;20189;-81
2022/12/12 02:45:08;;;;;;;30.30;15.37;;;-2.40;99.90;;;;;;8377942;28;20185;-79
2022/12/12 02:49:18;;;;;;;28.07;14.10;;;-2.40;99.90;;;;;;8385234;28;20253;-81
2022/12/12 02:53:22;;;;;;;31.17;14.77;;;-2.40;99.90;;;;;;8379731;28;20186;-80
2022/12/12 02:57:24;;;;;;;33.87;15.30;;;-2.40;99.90;;;;;;8379669;28;20247;-80
2022/12/12 03:01:49;;;;;;;28.43;14.60;;;-2.40;99.90;;;;;;8377280;28;20272;-77
2022/12/12 03:10:55;;;;;;;30.37;14.47;;;-2.40;99.90;;;;;;8375071;28;20228;-81
2022/12/12 03:15:24;;;;;;;27.03;13.70;;;-2.40;99.90;;;;;;8379388;28;20276;-76
2022/12/12 03:19:33;;;;;;;29.37;13.57;;;-2.40;99.90;;;;;;8372030;28;20185;-76
2022/12/12 03:23:40;;;;;;;27.93;14.43;;;-2.30;99.90;;;;;;8380123;28;20185;-76
2022/12/12 03:27:51;;;;;;;28.87;13.57;;;-2.30;99.90;;;;;;8370694;28;20503;-76
2022/12/12 03:31:57;;;;;;;32.13;15.00;;;-2.30;99.90;;;;;;8369982;28;20179;-79
2022/12/12 03:36:13;;;;;;;28.03;13.10;;;-2.30;99.90;;;;;;8374179;28;20213;-79
2022/12/12 03:40:40;;;;;;;30.73;14.77;;;-2.30;99.90;;;;;;8373192;28;20181;-81
2022/12/12 03:45:10;;;;;;;28.13;14.30;;;-2.30;99.90;;;;;;8371112;28;20277;-80
2022/12/12 03:49:23;;;;;;;25.33;13.33;;;-2.30;99.90;;;;;;8370777;28;20192;-76
2022/12/12 03:54:12;;;;;;;26.50;12.47;;;-2.30;99.90;;;;;;8376495;28;20181;-79
2022/12/12 03:58:22;;;;;;;19.97;10.43;;;-2.30;99.90;;;;;;8370909;28;20340;-81
2022/12/12 04:02:31;;;;;;;25.13;11.87;;;-2.30;99.90;;;;;;8366693;28;20177;-79
2022/12/12 04:06:54;;;;;;;25.23;11.83;;;-2.20;99.90;;;;;;8378156;28;20192;-76
2022/12/12 04:15:45;;;;;;;24.43;11.87;;;-2.20;99.90;;;;;;8377108;28;20243;-81
2022/12/12 04:24:53;;;;;;;23.53;11.40;;;-2.20;99.90;;;;;;8336839;28;20201;-80
2022/12/12 04:29:06;;;;;;;22.07;11.27;;;-2.20;99.90;;;;;;8384349;28;20268;-76
2022/12/12 04:33:12;;;;;;;19.30;11.50;;;-2.20;99.90;;;;;;8372148;28;20199;-76
2022/12/12 04:37:17;;;;;;;21.23;11.17;;;-2.20;99.90;;;;;;8368259;28;20222;-75
2022/12/12 04:41:20;;;;;;;22.03;11.57;;;-2.20;99.90;;;;;;8372373;28;20178;-79
2022/12/12 04:45:26;;;;;;;21.90;12.03;;;-2.20;99.90;;;;;;8374912;28;20183;-77
2022/12/12 04:49:29;;;;;;;20.30;10.80;;;-2.20;99.90;;;;;;8370446;28;20212;-76
2022/12/12 04:53:35;;;;;;;19.93;10.90;;;-2.10;99.90;;;;;;8368492;28;20277;-81
2022/12/12 04:57:47;;;;;;;22.13;10.53;;;-2.10;99.90;;;;;;8373530;28;20235;-77
2022/12/12 05:02:23;;;;;;;22.57;11.67;;;-2.20;99.90;;;;;;8374051;28;20268;-83
2022/12/12 05:06:37;;;;;;;21.50;12.20;;;-2.10;99.90;;;;;;8355621;28;20265;-77
2022/12/12 05:10:46;;;;;;;26.40;12.67;;;-2.10;99.90;;;;;;8366739;28;20186;-75
2022/12/12 05:14:47;;;;;;;19.60;10.73;;;-2.10;99.90;;;;;;8369207;28;20198;-81
2022/12/12 05:18:48;;;;;;;21.07;11.93;;;-2.10;99.90;;;;;;8369067;28;20185;-79
2022/12/12 05:22:49;;;;;;;23.43;12.37;;;-2.10;99.90;;;;;;8368402;28;20173;-80
2022/12/12 05:26:50;;;;;;;21.70;11.13;;;-2.10;99.90;;;;;;8368625;28;20185;-75
2022/12/12 05:30:50;;;;;;;23.83;12.77;;;-2.10;99.90;;;;;;8370501;28;20256;-75
2022/12/12 05:34:51;;;;;;;24.40;13.40;;;-2.10;99.90;;;;;;8368979;28;20211;-75
2022/12/12 05:38:52;;;;;;;23.00;12.77;;;-2.10;99.90;;;;;;8368099;28;20186;-77
2022/12/12 05:42:53;;;;;;;23.77;12.57;;;-2.10;99.90;;;;;;8365711;28;20205;-81
2022/12/12 05:46:54;;;;;;;24.33;11.63;;;-2.10;99.90;;;;;;8364613;28;20217;-80
2022/12/12 05:50:55;;;;;;;20.90;11.17;;;-2.10;99.90;;;;;;8367430;28;20281;-74
2022/12/12 05:54:56;;;;;;;21.17;10.80;;;-2.10;99.90;;;;;;8378958;28;20209;-76
2022/12/12 05:58:56;;;;;;;20.67;10.37;;;-2.10;99.90;;;;;;8374717;28;20236;-79
2022/12/12 06:02:57;;;;;;;19.13;10.73;;;-2.10;99.90;;;;;;8373779;28;20209;-81
2022/12/12 06:06:58;;;;;;;21.17;10.73;;;-2.20;99.90;;;;;;8368364;28;20194;-77
2022/12/12 06:10:59;;;;;;;19.90;10.83;;;-2.20;99.90;;;;;;8374744;28;20232;-80
2022/12/12 06:15:00;;;;;;;24.33;11.17;;;-2.10;99.90;;;;;;8373066;28;20220;-76
2022/12/12 06:19:01;;;;;;;15.27;9.37;;;-2.10;99.90;;;;;;8386282;28;20196;-80
2022/12/12 06:23:02;;;;;;;18.63;10.70;;;-2.10;99.90;;;;;;8383415;28;20181;-76
2022/12/12 06:27:03;;;;;;;18.37;10.43;;;-2.10;99.90;;;;;;8387993;28;20427;-83
2022/12/12 06:31:05;;;;;;;20.37;10.60;;;-2.10;99.90;;;;;;8378270;28;20255;-80
2022/12/12 06:35:06;;;;;;;20.40;10.53;;;-2.10;99.90;;;;;;8370199;28;20238;-78
2022/12/12 06:39:08;;;;;;;18.50;9.53;;;-2.10;99.90;;;;;;8366206;28;20190;-76
2022/12/12 06:43:09;;;;;;;16.57;9.37;;;-2.10;99.90;;;;;;8372694;28;20300;-75
2022/12/12 06:47:10;;;;;;;20.67;10.80;;;-2.10;99.90;;;;;;8370168;28;20189;-76
2022/12/12 06:51:15;;;;;;;18.30;10.30;;;-2.00;99.90;;;;;;8372911;28;20192;-81
2022/12/12 06:55:16;;;;;;;19.93;10.70;;;-2.00;99.90;;;;;;8364498;28;20246;-82
2022/12/12 06:59:18;;;;;;;20.00;10.30;;;-2.00;99.90;;;;;;8366986;28;20206;-76
2022/12/12 07:03:19;;;;;;;20.17;9.40;;;-2.00;99.90;;;;;;8371491;28;20218;-80
2022/12/12 07:07:20;;;;;;;18.80;10.60;;;-2.00;99.90;;;;;;8376997;28;20189;-77
2022/12/12 07:11:24;;;;;;;18.90;10.93;;;-2.00;99.90;;;;;;8376624;28;20197;-76
2022/12/12 07:15:25;;;;;;;18.60;11.13;;;-2.00;99.90;;;;;;8373768;28;20209;-81
2022/12/12 07:19:25;;;;;;;18.23;10.13;;;-1.90;99.90;;;;;;8386126;28;20188;-75
2022/12/12 07:23:26;;;;;;;20.23;9.80;;;-1.90;99.90;;;;;;8377195;28;20300;-79
2022/12/12 07:27:27;;;;;;;20.40;11.60;;;-1.90;99.90;;;;;;8384342;28;20217;-81
2022/12/12 07:31:28;;;;;;;18.67;10.50;;;-1.90;99.90;;;;;;8380364;28;20191;-75
2022/12/12 07:35:29;;;;;;;18.53;9.83;;;-1.90;99.90;;;;;;8381047;28;20491;-80
2022/12/12 07:39:31;;;;;;;19.20;11.07;;;-1.90;99.90;;;;;;8381719;28;20194;-80
2022/12/12 07:43:35;;;;;;;18.97;10.47;;;-1.90;99.90;;;;;;8390547;28;20201;-77
2022/12/12 07:47:35;;;;;;;20.23;10.47;;;-1.90;99.90;;;;;;8373480;28;20192;-83
2022/12/12 07:51:37;;;;;;;21.57;11.93;;;-1.80;99.90;;;;;;8373501;28;20399;-77
2022/12/12 07:55:39;;;;;;;24.80;11.90;;;-1.80;99.90;;;;;;8372720;28;20220;-83
2022/12/12 07:59:40;;;;;;;21.13;11.50;;;-1.80;99.90;;;;;;8376951;28;20289;-81
2022/12/12 08:03:45;;;;;;;24.77;11.43;;;-1.80;99.90;;;;;;8369549;28;20235;-77
2022/12/12 08:07:46;;;;;;;23.73;12.47;;;-1.80;99.90;;;;;;8369196;28;20187;-76
2022/12/12 08:11:47;;;;;;;21.63;11.47;;;-1.80;99.90;;;;;;8373704;28;20184;-80
2022/12/12 08:15:48;;;;;;;21.53;11.77;;;-1.80;99.90;;;;;;8369602;28;20215;-76
2022/12/12 08:19:49;;;;;;;20.20;10.97;;;-1.70;99.90;;;;;;8370415;28;20187;-77
2022/12/12 08:23:50;;;;;;;23.10;11.33;;;-1.60;99.90;;;;;;8372268;28;20211;-81
2022/12/12 08:27:50;;;;;;;20.30;11.17;;;-1.60;99.90;;;;;;8382427;28;20283;-76
2022/12/12 08:31:51;;;;;;;19.47;10.87;;;-1.50;99.90;;;;;;8376928;28;20191;-77
2022/12/12 08:35:52;;;;;;;21.67;11.43;;;-1.50;99.90;;;;;;8389298;28;20224;-76
2022/12/12 08:39:53;;;;;;;20.80;10.00;;;-1.50;99.90;;;;;;8371567;28;20245;-77
2022/12/12 08:43:54;;;;;;;19.37;10.93;;;-1.40;99.90;;;;;;8374025;28;20198;-81
2022/12/12 08:47:55;;;;;;;16.97;10.07;;;-1.40;99.90;;;;;;8371477;28;20187;-77
2022/12/12 08:51:55;;;;;;;16.80;10.00;;;-1.30;99.90;;;;;;8375956;28;20198;-78
2022/12/12 08:55:56;;;;;;;14.63;8.93;;;-1.20;99.90;;;;;;8374629;28;20239;-79
2022/12/12 08:59:57;;;;;;;15.47;9.43;;;-1.20;99.90;;;;;;8370007;28;20247;-81
2022/12/12 09:03:58;;;;;;;15.87;8.87;;;-1.10;99.90;;;;;;8366737;28;20185;-77
2022/12/12 09:07:59;;;;;;;17.60;8.93;;;-1.00;99.90;;;;;;8372981;28;20192;-78
2022/12/12 09:12:00;;;;;;;14.63;8.97;;;-1.00;99.90;;;;;;8376636;28;20188;-81
2022/12/12 09:16:01;;;;;;;13.67;8.03;;;-1.00;99.90;;;;;;8373695;28;20215;-77
2022/12/12 09:20:02;;;;;;;14.50;8.57;;;-1.00;99.90;;;;;;8370315;28;20194;-80
2022/12/12 09:24:03;;;;;;;10.90;7.53;;;-0.90;99.90;;;;;;8369491;28;20182;-78
2022/12/12 09:28:04;;;;;;;9.63;6.80;;;-1.00;99.90;;;;;;8373186;28;20291;-77
2022/12/12 09:32:05;;;;;;;12.77;7.93;;;-1.00;99.90;;;;;;8372353;28;20188;-77
2022/12/12 09:36:08;;;;;;;12.80;8.30;;;-0.90;99.90;;;;;;8372622;28;20285;-77
2022/12/12 09:40:20;;;;;;;9.73;6.60;;;-0.90;99.90;;;;;;8384171;28;20192;-78
2022/12/12 09:44:22;;;;;;;11.10;7.63;;;-0.90;99.90;;;;;;8369554;28;20195;-76
2022/12/12 09:48:42;;;;;;;10.73;6.90;;;-0.80;99.90;;;;;;8371714;28;20189;-77
2022/12/12 09:52:44;;;;;;;10.90;6.20;;;-0.80;99.90;;;;;;8375544;28;20223;-83
2022/12/12 09:57:03;;;;;;;11.57;7.70;;;-0.80;99.90;;;;;;8373356;28;20209;-81
2022/12/12 10:01:07;;;;;;;11.10;7.60;;;-0.70;99.90;;;;;;8362466;28;20172;-75
2022/12/12 10:05:31;;;;;;;11.33;7.47;;;-0.70;99.90;;;;;;8368918;28;20260;-80
2022/12/12 10:09:41;;;;;;;11.17;6.77;;;-0.80;99.90;;;;;;8368481;28;20238;-76
2022/12/12 10:13:42;;;;;;;11.87;7.60;;;-0.70;99.90;;;;;;8372643;28;20188;-81
2022/12/12 10:17:45;;;;;;;10.33;7.60;;;-0.70;99.90;;;;;;8372647;28;20246;-77
2022/12/12 10:21:48;;;;;;;12.47;7.80;;;-0.70;99.90;;;;;;8371391;28;20182;-79
2022/12/12 10:26:06;;;;;;;10.80;6.63;;;-0.60;99.90;;;;;;8385618;28;20191;-79
2022/12/12 10:30:15;;;;;;;11.20;6.70;;;-0.60;99.90;;;;;;8369756;28;20189;-80
2022/12/12 10:34:38;;;;;;;9.50;6.27;;;-0.50;99.90;;;;;;8382230;28;20283;-75
2022/12/12 10:39:13;;;;;;;8.97;6.80;;;-0.40;99.90;;;;;;8370214;28;20189;-75
2022/12/12 10:43:18;;;;;;;6.73;5.47;;;-0.30;99.90;;;;;;8377721;28;20166;-82
2022/12/12 10:47:19;;;;;;;8.83;6.50;;;-0.30;99.90;;;;;;8373291;28;20285;-79
2022/12/12 10:51:22;;;;;;;8.47;5.47;;;-0.20;99.90;;;;;;8366420;28;20185;-81
2022/12/12 10:55:39;;;;;;;8.57;5.07;;;-0.20;99.90;;;;;;8392376;28;20215;-79
2022/12/12 10:59:42;;;;;;;8.33;5.57;;;-0.10;99.90;;;;;;8370898;28;20237;-82
2022/12/12 11:03:51;;;;;;;8.47;5.47;;;0.00;99.90;;;;;;8377163;28;20379;-77
2022/12/12 11:08:04;;;;;;;7.93;5.00;;;-0.10;99.90;;;;;;8375434;28;20270;-76
2022/12/12 11:12:15;;;;;;;8.07;5.60;;;0.00;99.90;;;;;;8375361;28;20182;-80
2022/12/12 11:16:26;;;;;;;5.93;5.17;;;0.00;99.90;;;;;;8379627;28;20205;-79
2022/12/12 11:20:28;;;;;;;8.03;5.40;;;0.00;99.90;;;;;;8371858;28;20184;-75
2022/12/12 11:24:34;;;;;;;6.63;4.87;;;0.10;99.90;;;;;;8370584;28;20177;-88
2022/12/12 11:28:37;;;;;;;6.40;5.30;;;0.00;99.90;;;;;;8371115;28;20204;-85
2022/12/12 11:32:45;;;;;;;6.07;4.60;;;0.00;99.90;;;;;;8390370;28;20193;-80
2022/12/12 11:36:46;;;;;;;6.70;4.30;;;0.00;99.90;;;;;;8392134;28;20237;-90
2022/12/12 11:41:09;;;;;;;7.23;4.87;;;0.10;99.90;;;;;;8373753;28;20168;-89
2022/12/12 11:45:13;;;;;;;6.97;4.37;;;0.00;99.90;;;;;;8375835;28;20188;-75
2022/12/12 11:49:19;;;;;;;5.60;4.37;;;0.00;99.90;;;;;;8377784;28;20243;-76
2022/12/12 11:53:19;;;;;;;6.43;4.47;;;0.00;99.90;;;;;;8371655;28;20215;-81
2022/12/12 11:57:51;;;;;;;6.30;4.50;;;0.00;99.90;;;;;;8370557;28;20224;-76
2022/12/12 12:01:57;;;;;;;7.97;4.63;;;0.00;99.90;;;;;;8377083;28;20268;-77
2022/12/12 12:06:10;;;;;;;7.63;4.97;;;0.10;99.90;;;;;;8374638;28;20186;-81
2022/12/12 12:10:38;;;;;;;8.13;5.67;;;0.10;99.90;;;;;;8374642;28;20284;-81
2022/12/12 12:15:16;;;;;;;9.50;5.93;;;0.00;99.90;;;;;;8376263;28;20288;-77
2022/12/12 12:19:35;;;;;;;9.03;6.13;;;-0.10;99.90;;;;;;8378690;28;20270;-81
2022/12/12 12:24:01;;;;;;;10.23;6.90;;;-0.20;99.90;;;;;;8390657;28;20257;-77
2022/12/12 12:28:36;;;;;;;8.67;6.33;;;-0.20;99.90;;;;;;8371006;28;20291;-85
2022/12/12 12:33:10;;;;;;;9.60;5.83;;;-0.20;99.90;;;;;;8374687;28;20194;-76
2022/12/12 12:37:30;;;;;;;9.47;6.63;;;-0.20;99.90;;;;;;8375764;28;20221;-84
2022/12/12 12:42:12;;;;;;;10.00;7.37;;;-0.30;99.90;;;;;;8371551;28;20271;-75
2022/12/12 12:46:40;;;;;;;12.10;7.17;;;-0.30;99.90;;;;;;8364629;28;20316;-79
2022/12/12 12:51:04;;;;;;;9.83;6.37;;;-0.30;99.90;;;;;;8368588;28;20193;-76
2022/12/12 12:55:17;;;;;;;9.37;6.30;;;-0.40;99.90;;;;;;8370092;28;20220;-78
2022/12/12 12:59:24;;;;;;;10.00;7.20;;;-0.30;99.90;;;;;;8354499;28;20201;-81
2022/12/12 13:03:32;;;;;;;11.63;6.80;;;-0.30;99.90;;;;;;8369916;28;20181;-84
2022/12/12 13:07:46;;;;;;;9.40;5.57;;;-0.30;99.90;;;;;;8369710;28;20181;-76
2022/12/12 13:11:50;;;;;;;9.50;6.87;;;-0.30;99.90;;;;;;8366749;28;20194;-84
2022/12/12 13:16:12;;;;;;;10.83;7.17;;;-0.30;99.90;;;;;;8375518;28;20214;-77
2022/12/12 13:20:16;;;;;;;8.30;5.47;;;-0.30;99.90;;;;;;8363241;28;20181;-76
2022/12/12 13:24:41;;;;;;;7.40;6.10;;;-0.30;99.90;;;;;;8374212;28;20200;-77
2022/12/12 13:28:57;;;;;;;7.93;5.60;;;-0.30;99.90;;;;;;8368865;28;20207;-84
2022/12/12 13:33:21;;;;;;;9.53;6.60;;;-0.40;99.90;;;;;;8370677;28;20213;-84
2022/12/12 13:37:22;;;;;;;11.77;7.00;;;-0.40;99.90;;;;;;8369017;28;20213;-76
2022/12/12 13:41:23;;;;;;;9.37;6.00;;;-0.30;99.90;;;;;;8371231;28;20181;-80
2022/12/12 13:45:43;;;;;;;9.67;6.03;;;-0.30;99.90;;;;;;8367491;28;20213;-80
2022/12/12 13:49:50;;;;;;;8.73;5.73;;;-0.40;99.90;;;;;;8373796;28;20199;-81
2022/12/12 13:54:11;;;;;;;8.57;5.97;;;-0.40;99.90;;;;;;8367750;28;20186;-85
2022/12/12 13:58:31;;;;;;;10.13;6.00;;;-0.40;99.90;;;;;;8370222;28;20219;-83
2022/12/12 14:02:40;;;;;;;10.73;6.20;;;-0.40;99.90;;;;;;8371630;28;20186;-77
2022/12/12 14:06:41;;;;;;;13.23;6.90;;;-0.40;99.90;;;;;;8368161;28;20243;-76
2022/12/12 14:10:47;;;;;;;12.30;7.53;;;-0.40;99.90;;;;;;8375395;28;20224;-80
2022/12/12 14:14:57;;;;;;;12.83;7.13;;;-0.50;99.90;;;;;;8371597;28;20196;-77
2022/12/12 14:19:04;;;;;;;9.97;6.83;;;-0.50;99.90;;;;;;8368900;28;20185;-80
2022/12/12 14:23:09;;;;;;;11.30;7.33;;;-0.50;99.90;;;;;;8375819;28;20189;-80
2022/12/12 14:27:11;;;;;;;8.70;6.17;;;-0.60;99.90;;;;;;8377116;28;20185;-81
2022/12/12 14:31:16;;;;;;;12.97;6.37;;;-0.60;99.90;;;;;;8381159;28;20185;-76
2022/12/12 14:35:43;;;;;;;10.53;6.97;;;-0.60;99.90;;;;;;8369425;28;20662;-79
2022/12/12 14:39:51;;;;;;;11.07;6.80;;;-0.60;99.90;;;;;;8368753;28;20200;-77
2022/12/12 14:43:56;;;;;;;11.10;6.60;;;-0.70;99.90;;;;;;8372827;28;20227;-77
2022/12/12 14:48:20;;;;;;;10.37;7.10;;;-0.60;99.90;;;;;;8374747;28;20591;-80
2022/12/12 14:52:22;;;;;;;10.10;6.60;;;-0.60;99.90;;;;;;8371774;28;20185;-82
2022/12/12 14:56:46;;;;;;;9.90;6.93;;;-0.70;99.90;;;;;;8370439;28;20263;-77
2022/12/12 15:00:51;;;;;;;12.13;8.67;;;-0.70;99.90;;;;;;8371215;28;20192;-80
2022/12/12 15:04:58;;;;;;;18.00;11.47;;;-0.70;99.90;;;;;;8380818;28;20232;-83
2022/12/12 15:09:10;;;;;;;12.23;7.07;;;-0.80;99.90;;;;;;8383217;28;20241;-81
2022/12/12 15:13:19;;;;;;;9.40;6.43;;;-0.80;99.90;;;;;;8368237;28;20185;-77
2022/12/12 15:17:50;;;;;;;10.00;6.57;;;-0.90;99.90;;;;;;8386442;28;20232;-78
2022/12/12 15:21:51;;;;;;;8.63;5.77;;;-1.00;99.90;;;;;;8352205;28;20198;-78
2022/12/12 15:25:54;;;;;;;8.27;5.07;;;-1.10;99.90;;;;;;8375887;28;20195;-77
2022/12/12 15:29:57;;;;;;;8.80;5.17;;;-1.20;99.90;;;;;;8379043;28;20237;-77
2022/12/12 15:33:57;;;;;;;7.83;5.20;;;-1.20;99.90;;;;;;8377893;28;20236;-81
2022/12/12 15:38:06;;;;;;;7.10;5.10;;;-1.30;99.90;;;;;;8376051;28;20181;-76
2022/12/12 15:42:11;;;;;;;6.70;4.70;;;-1.40;99.90;;;;;;8375417;28;20180;-81
2022/12/12 15:46:14;;;;;;;6.03;4.40;;;-1.40;99.90;;;;;;8378261;28;20660;-77
2022/12/12 15:50:19;;;;;;;8.30;5.23;;;-1.50;99.90;;;;;;8376263;28;20188;-77
2022/12/12 15:54:21;;;;;;;6.67;5.17;;;-1.50;99.90;;;;;;8377507;28;20203;-83
2022/12/12 15:58:29;;;;;;;7.53;4.13;;;-1.60;99.90;;;;;;8373769;28;20715;-77
2022/12/12 16:02:32;;;;;;;6.03;3.97;;;-1.70;99.90;;;;;;8379056;28;20240;-77
2022/12/12 16:06:36;;;;;;;6.10;4.23;;;-1.80;99.90;;;;;;8374728;28;20217;-81
2022/12/12 16:10:51;;;;;;;5.57;4.03;;;-1.90;99.90;;;;;;8380797;28;20305;-83
2022/12/12 16:14:52;;;;;;;4.97;3.80;;;-2.00;99.90;;;;;;8375644;28;20202;-77
2022/12/12 16:18:54;;;;;;;6.03;4.10;;;-2.10;99.90;;;;;;8384419;28;20248;-81
2022/12/12 16:22:55;;;;;;;7.87;4.87;;;-2.20;99.90;;;;;;8374500;28;20185;-78
2022/12/12 16:26:58;;;;;;;7.40;4.73;;;-2.20;99.90;;;;;;8379206;28;20216;-83
2022/12/12 16:31:05;;;;;;;5.80;4.47;;;-2.20;99.90;;;;;;8379981;28;20331;-81
2022/12/12 16:35:06;;;;;;;7.43;4.93;;;-2.30;99.90;;;;;;8365823;28;20217;-81
2022/12/12 16:39:09;;;;;;;10.33;5.77;;;-2.30;99.90;;;;;;8374095;28;20190;-77
2022/12/12 16:43:13;;;;;;;9.83;5.10;;;-2.40;99.90;;;;;;8377027;28;20224;-81
2022/12/12 16:47:21;;;;;;;8.83;5.40;;;-2.50;99.90;;;;;;8373823;28;20186;-81
2022/12/12 16:51:31;;;;;;;9.77;6.47;;;-2.50;99.90;;;;;;8376966;28;20258;-77
2022/12/12 16:55:35;;;;;;;9.60;5.83;;;-2.50;99.90;;;;;;8379090;28;20223;-80
2022/12/12 16:59:37;;;;;;;10.43;5.90;;;-2.50;99.90;;;;;;8384293;28;20237;-75
2022/12/12 17:03:38;;;;;;;9.10;5.87;;;-2.50;99.90;;;;;;8372196;28;20197;-79
2022/12/12 17:07:39;;;;;;;9.33;5.23;;;-2.50;99.90;;;;;;8368594;28;20189;-75
2022/12/12 17:11:40;;;;;;;8.10;5.43;;;-2.40;99.90;;;;;;8379622;28;20190;-76
2022/12/12 17:15:41;;;;;;;8.73;5.40;;;-2.30;99.90;;;;;;8377109;28;20224;-79
2022/12/12 17:19:42;;;;;;;7.47;5.10;;;-2.30;99.90;;;;;;8379829;28;20190;-84
2022/12/12 17:23:43;;;;;;;8.30;5.53;;;-2.30;99.90;;;;;;8379941;28;20401;-75
2022/12/12 17:27:44;;;;;;;9.27;6.00;;;-2.20;99.90;;;;;;8377320;28;20191;-78
2022/12/12 17:31:45;;;;;;;7.63;5.87;;;-2.20;99.90;;;;;;8375639;28;20244;-80
2022/12/12 17:35:58;;;;;;;10.97;6.13;;;-2.20;99.90;;;;;;8376971;28;20284;-79
2022/12/12 17:40:00;;;;;;;8.63;6.23;;;-2.20;99.90;;;;;;8378333;28;20256;-79
2022/12/12 17:44:01;;;;;;;9.17;6.53;;;-2.10;99.90;;;;;;8371724;28;20204;-82
2022/12/12 17:48:03;;;;;;;14.90;7.83;;;-2.10;99.90;;;;;;8371577;28;20189;-81
2022/12/12 17:52:05;;;;;;;10.20;6.87;;;-2.10;99.90;;;;;;8377644;28;20276;-79
2022/12/12 17:56:08;;;;;;;11.03;7.20;;;-2.10;99.90;;;;;;8376280;28;20602;-82
2022/12/12 18:00:10;;;;;;;10.10;7.17;;;-2.10;99.90;;;;;;8382564;28;20254;-82
2022/12/12 18:04:11;;;;;;;10.10;5.73;;;-2.10;99.90;;;;;;8370810;28;20182;-81
2022/12/12 18:08:12;;;;;;;9.77;6.20;;;-2.10;99.90;;;;;;8371440;28;20214;-77
2022/12/12 18:12:13;;;;;;;9.90;5.73;;;-2.20;99.90;;;;;;8370314;28;20183;-79
2022/12/12 18:16:14;;;;;;;8.47;6.03;;;-2.20;99.90;;;;;;8379858;28;20198;-78
2022/12/12 18:20:15;;;;;;;7.60;5.33;;;-2.20;99.90;;;;;;8379581;28;20365;-77
2022/12/12 18:24:16;;;;;;;7.07;5.90;;;-2.30;99.90;;;;;;8378793;28;20368;-83
2022/12/12 18:28:17;;;;;;;6.53;4.93;;;-2.30;99.90;;;;;;8376831;28;20258;-80
2022/12/12 18:32:19;;;;;;;5.90;4.90;;;-2.30;99.90;;;;;;8379516;28;20186;-82
2022/12/12 18:36:25;;;;;;;6.87;4.87;;;-2.40;99.90;;;;;;8375005;28;20207;-80
2022/12/12 18:40:28;;;;;;;5.67;4.33;;;-2.40;99.90;;;;;;8376035;28;20174;-76
2022/12/12 18:44:29;;;;;;;7.27;4.53;;;-2.50;99.90;;;;;;8371247;28;20221;-76
2022/12/12 18:48:30;;;;;;;5.23;3.80;;;-2.60;99.90;;;;;;8382036;28;20206;-80
2022/12/12 18:52:34;;;;;;;6.13;4.43;;;-2.80;99.90;;;;;;8374845;28;20194;-80
2022/12/12 18:56:35;;;;;;;5.43;4.03;;;-2.90;99.90;;;;;;8372586;28;20213;-79
2022/12/12 19:00:39;;;;;;;6.17;4.20;;;-2.90;99.90;;;;;;8376940;28;20282;-80
2022/12/12 19:04:43;;;;;;;5.67;4.30;;;-2.90;99.90;;;;;;8372343;28;20196;-79
2022/12/12 19:08:45;;;;;;;7.00;5.10;;;-2.90;99.90;;;;;;8373027;28;20185;-75
2022/12/12 19:12:45;;;;;;;6.30;4.50;;;-2.90;99.90;;;;;;8376766;28;20245;-80
2022/12/12 19:16:47;;;;;;;5.47;3.93;;;-2.90;99.90;;;;;;8380195;28;20213;-75
2022/12/12 19:20:48;;;;;;;5.80;4.17;;;-2.80;99.90;;;;;;8376522;28;20287;-79
2022/12/12 19:24:49;;;;;;;6.13;4.77;;;-2.80;99.90;;;;;;8377978;28;20189;-82
2022/12/12 19:28:54;;;;;;;7.37;4.93;;;-2.80;99.90;;;;;;8378236;28;20220;-84
2022/12/12 19:32:55;;;;;;;5.37;4.17;;;-2.90;99.90;;;;;;8375925;28;20265;-79
2022/12/12 19:36:57;;;;;;;6.20;4.50;;;-2.90;99.90;;;;;;8376610;28;20288;-79
2022/12/12 19:41:03;;;;;;;6.10;4.07;;;-3.00;99.90;;;;;;8379563;28;20247;-76
2022/12/12 19:45:06;;;;;;;9.13;4.40;;;-3.10;99.90;;;;;;8379631;28;20185;-79
2022/12/12 19:49:08;;;;;;;7.90;4.43;;;-3.20;99.90;;;;;;8376280;28;20207;-76
2022/12/12 19:53:10;;;;;;;7.97;4.63;;;-3.20;99.90;;;;;;8380496;28;20185;-79
2022/12/12 19:57:12;;;;;;;7.70;4.40;;;-3.10;99.90;;;;;;8378956;28;20249;-75
2022/12/12 20:01:33;;;;;;;6.37;4.60;;;-3.10;99.90;;;;;;8369005;28;20185;-78
2022/12/12 20:05:34;;;;;;;7.43;4.57;;;-3.00;99.90;;;;;;8375796;28;20181;-78
2022/12/12 20:09:35;;;;;;;6.03;4.87;;;-3.00;99.90;;;;;;8371204;28;20244;-81
2022/12/12 20:13:37;;;;;;;7.10;4.77;;;-3.00;99.90;;;;;;8376132;28;20189;-81
2022/12/12 20:17:38;;;;;;;6.07;4.40;;;-3.00;99.90;;;;;;8373528;28;20214;-78
2022/12/12 20:21:42;;;;;;;7.10;4.53;;;-3.00;99.90;;;;;;8374458;28;20189;-78
2022/12/12 20:25:43;;;;;;;7.80;5.00;;;-3.00;99.90;;;;;;8377369;28;20280;-75
2022/12/12 20:29:44;;;;;;;9.50;5.00;;;-2.90;99.90;;;;;;8369718;28;20239;-76
2022/12/12 20:33:45;;;;;;;7.30;4.53;;;-2.90;99.90;;;;;;8376670;28;20261;-76
2022/12/12 20:37:47;;;;;;;9.10;5.03;;;-2.90;99.90;;;;;;8377741;28;20201;-75
2022/12/12 20:41:49;;;;;;;8.07;5.17;;;-2.90;99.90;;;;;;8377143;28;20200;-76
2022/12/12 20:45:50;;;;;;;7.23;5.27;;;-2.90;99.90;;;;;;8371567;28;20188;-76
2022/12/12 20:49:52;;;;;;;7.33;5.17;;;-2.90;99.90;;;;;;8369754;28;20236;-75
2022/12/12 20:53:53;;;;;;;7.83;5.50;;;-2.80;99.90;;;;;;8372579;28;20178;-76
2022/12/12 20:57:54;;;;;;;9.17;5.60;;;-2.80;99.90;;;;;;8374080;28;20233;-77
2022/12/12 21:01:55;;;;;;;7.37;5.40;;;-2.80;99.90;;;;;;8365982;28;20181;-81
2022/12/12 21:05:58;;;;;;;7.23;4.90;;;-2.80;99.90;;;;;;8373835;28;20190;-80
2022/12/12 21:09:59;;;;;;;7.27;5.17;;;-2.90;99.90;;;;;;8373587;28;20182;-76
2022/12/12 21:14:00;;;;;;;8.00;5.13;;;-2.90;99.90;;;;;;8368839;28;20269;-79
2022/12/12 21:18:03;;;;;;;9.10;5.17;;;-2.90;99.90;;;;;;8371442;28;20202;-76
2022/12/12 21:22:07;;;;;;;10.37;5.70;;;-2.90;99.90;;;;;;8368045;28;20185;-79